createdAt,value
2017-02-05T00:00:45.803Z,1002.85
2017-02-05T00:01:46.965Z,1002.85
2017-02-05T00:02:47.808Z,1002.8
2017-02-05T00:03:48.798Z,1002.78
2017-02-05T00:04:49.568Z,1002.76
2017-02-05T00:05:50.631Z,1002.74
2017-02-05T00:06:51.337Z,1002.75
2017-02-05T00:07:52.428Z,1002.77
2017-02-05T00:08:53.167Z,1002.78
2017-02-05T00:09:53.899Z,1002.76
2017-02-05T00:10:54.809Z,1002.78
2017-02-05T00:11:55.590Z,1002.76
2017-02-05T00:12:56.364Z,1002.77
2017-02-05T00:13:57.262Z,1002.74
2017-02-05T00:14:58.122Z,1002.72
2017-02-05T00:15:58.970Z,1002.7
2017-02-05T00:16:59.645Z,1002.72
2017-02-05T00:18:00.345Z,1002.73
2017-02-05T00:19:01.080Z,1002.74
2017-02-05T00:20:01.784Z,1002.75
2017-02-05T00:21:02.567Z,1002.71
2017-02-05T00:22:03.323Z,1002.74
2017-02-05T00:23:04.116Z,1002.72
2017-02-05T00:24:04.811Z,1002.73
2017-02-05T00:25:05.626Z,1002.72
2017-02-05T00:26:06.317Z,1002.77
2017-02-05T00:27:07.025Z,1002.76
2017-02-05T00:28:07.748Z,1002.75
2017-02-05T00:29:08.444Z,1002.73
2017-02-05T00:30:09.175Z,1002.72
2017-02-05T00:31:09.871Z,1002.7
2017-02-05T00:32:10.567Z,1002.65
2017-02-05T00:33:11.261Z,1002.62
2017-02-05T00:34:12.005Z,1002.64
2017-02-05T00:35:12.705Z,1002.63
2017-02-05T00:36:13.422Z,1002.61
2017-02-05T00:37:14.121Z,1002.62
2017-02-05T00:38:14.871Z,1002.61
2017-02-05T00:39:15.579Z,1002.63
2017-02-05T00:40:16.301Z,1002.62
2017-02-05T00:41:17.041Z,1002.58
2017-02-05T00:42:17.742Z,1002.57
2017-02-05T00:43:18.493Z,1002.6
2017-02-05T00:44:19.170Z,1002.56
2017-02-05T00:45:19.867Z,1002.56
2017-02-05T00:46:20.560Z,1002.58
2017-02-05T00:47:21.401Z,1002.62
2017-02-05T00:48:22.155Z,1002.6
2017-02-05T00:49:22.920Z,1002.66
2017-02-05T00:50:23.582Z,1002.65
2017-02-05T00:51:24.323Z,1002.62
2017-02-05T00:52:25.030Z,1002.65
2017-02-05T00:53:25.700Z,1002.6
2017-02-05T00:54:26.372Z,1002.59
2017-02-05T00:55:27.094Z,1002.6
2017-02-05T00:56:27.969Z,1002.54
2017-02-05T00:57:28.765Z,1002.51
2017-02-05T00:58:29.455Z,1002.57
2017-02-05T00:59:30.310Z,1002.54
2017-02-05T01:00:31.204Z,1002.53
2017-02-05T01:01:31.940Z,1002.55
2017-02-05T01:02:32.669Z,1002.49
2017-02-05T01:03:33.360Z,1002.5
2017-02-05T01:04:34.112Z,1002.5
2017-02-05T01:05:34.904Z,1002.43
2017-02-05T01:06:35.556Z,1002.47
2017-02-05T01:07:36.263Z,1002.46
2017-02-05T01:08:37.095Z,1002.42
2017-02-05T01:09:37.845Z,1002.44
2017-02-05T01:10:38.539Z,1002.41
2017-02-05T01:11:39.278Z,1002.42
2017-02-05T01:12:40.077Z,1002.41
2017-02-05T01:13:40.725Z,1002.42
2017-02-05T01:14:41.436Z,1002.39
2017-02-05T01:15:42.124Z,1002.4
2017-02-05T01:16:42.909Z,1002.4
2017-02-05T01:17:43.694Z,1002.37
2017-02-05T01:18:44.500Z,1002.43
2017-02-05T01:19:45.260Z,1002.41
2017-02-05T01:20:46.054Z,1002.42
2017-02-05T01:21:46.794Z,1002.46
2017-02-05T01:22:47.528Z,1002.47
2017-02-05T01:23:48.207Z,1002.52
2017-02-05T01:24:48.955Z,1002.5
2017-02-05T01:25:49.682Z,1002.52
2017-02-05T01:26:50.392Z,1002.52
2017-02-05T01:27:51.080Z,1002.57
2017-02-05T01:28:51.788Z,1002.51
2017-02-05T01:29:52.483Z,1002.53
2017-02-05T01:30:53.327Z,1002.53
2017-02-05T01:31:54.067Z,1002.53
2017-02-05T01:32:54.740Z,1002.5
2017-02-05T01:33:55.435Z,1002.51
2017-02-05T01:34:56.137Z,1002.55
2017-02-05T01:35:56.824Z,1002.54
2017-02-05T01:36:57.535Z,1002.53
2017-02-05T01:37:58.209Z,1002.54
2017-02-05T01:38:58.975Z,1002.53
2017-02-05T01:39:59.729Z,1002.5
2017-02-05T01:41:00.413Z,1002.47
2017-02-05T01:42:01.089Z,1002.49
2017-02-05T01:43:01.780Z,1002.49
2017-02-05T01:44:02.457Z,1002.48
2017-02-05T01:45:03.171Z,1002.52
2017-02-05T01:46:03.878Z,1002.52
2017-02-05T01:47:04.559Z,1002.49
2017-02-05T01:48:05.251Z,1002.5
2017-02-05T01:49:05.926Z,1002.49
2017-02-05T01:50:06.622Z,1002.46
2017-02-05T01:51:07.274Z,1002.5
2017-02-05T01:52:07.988Z,1002.47
2017-02-05T01:53:08.744Z,1002.51
2017-02-05T01:54:09.423Z,1002.46
2017-02-05T01:55:10.114Z,1002.48
2017-02-05T01:56:10.792Z,1002.52
2017-02-05T01:57:11.485Z,1002.55
2017-02-05T01:58:12.179Z,1002.53
2017-02-05T01:59:12.884Z,1002.58
2017-02-05T02:00:13.559Z,1002.56
2017-02-05T02:01:14.241Z,1002.58
2017-02-05T02:02:14.942Z,1002.6
2017-02-05T02:03:15.618Z,1002.51
2017-02-05T02:04:16.298Z,1002.53
2017-02-05T02:05:16.973Z,1002.49
2017-02-05T02:06:17.661Z,1002.48
2017-02-05T02:07:18.354Z,1002.45
2017-02-05T02:08:19.024Z,1002.43
2017-02-05T02:09:19.771Z,1002.43
2017-02-05T02:10:20.453Z,1002.42
2017-02-05T02:11:21.130Z,1002.47
2017-02-05T02:12:21.834Z,1002.45
2017-02-05T02:13:22.556Z,1002.45
2017-02-05T02:14:23.231Z,1002.48
2017-02-05T02:15:23.899Z,1002.45
2017-02-05T02:16:24.673Z,1002.5
2017-02-05T02:17:25.344Z,1002.54
2017-02-05T02:18:26.063Z,1002.54
2017-02-05T02:19:26.890Z,1002.49
2017-02-05T02:20:27.571Z,1002.49
2017-02-05T02:21:28.258Z,1002.48
2017-02-05T02:22:28.945Z,1002.54
2017-02-05T02:23:29.628Z,1002.49
2017-02-05T02:24:30.283Z,1002.44
2017-02-05T02:25:30.952Z,1002.47
2017-02-05T02:26:31.639Z,1002.44
2017-02-05T02:27:32.317Z,1002.42
2017-02-05T02:28:32.997Z,1002.4
2017-02-05T02:29:33.689Z,1002.31
2017-02-05T02:30:34.382Z,1002.31
2017-02-05T02:31:35.061Z,1002.34
2017-02-05T02:32:35.747Z,1002.35
2017-02-05T02:33:36.411Z,1002.29
2017-02-05T02:34:37.082Z,1002.38
2017-02-05T02:35:37.769Z,1002.37
2017-02-05T02:36:38.433Z,1002.38
2017-02-05T02:37:39.104Z,1002.39
2017-02-05T02:38:39.797Z,1002.34
2017-02-05T02:39:40.467Z,1002.34
2017-02-05T02:40:41.156Z,1002.29
2017-02-05T02:41:41.827Z,1002.32
2017-02-05T02:42:42.504Z,1002.3
2017-02-05T02:43:43.185Z,1002.27
2017-02-05T02:44:43.863Z,1002.24
2017-02-05T02:45:44.531Z,1002.24
2017-02-05T02:46:45.207Z,1002.24
2017-02-05T02:47:45.923Z,1002.21
2017-02-05T02:48:46.584Z,1002.22
2017-02-05T02:49:47.284Z,1002.18
2017-02-05T02:50:47.963Z,1002.23
2017-02-05T02:51:48.656Z,1002.19
2017-02-05T02:52:49.349Z,1002.23
2017-02-05T02:53:50.020Z,1002.25
2017-02-05T02:54:50.702Z,1002.23
2017-02-05T02:55:51.397Z,1002.22
2017-02-05T02:56:52.073Z,1002.25
2017-02-05T02:57:52.740Z,1002.24
2017-02-05T02:58:53.420Z,1002.24
2017-02-05T02:59:54.133Z,1002.24
2017-02-05T03:00:54.802Z,1002.25
2017-02-05T03:01:55.488Z,1002.26
2017-02-05T03:02:56.174Z,1002.28
2017-02-05T03:03:56.861Z,1002.31
2017-02-05T03:04:57.522Z,1002.32
2017-02-05T03:05:58.222Z,1002.35
2017-02-05T03:06:58.880Z,1002.31
2017-02-05T03:07:59.546Z,1002.29
2017-02-05T03:09:00.222Z,1002.32
2017-02-05T03:10:00.980Z,1002.33
2017-02-05T03:11:01.655Z,1002.31
2017-02-05T03:12:02.330Z,1002.36
2017-02-05T03:13:03.082Z,1002.38
2017-02-05T03:14:03.768Z,1002.36
2017-02-05T03:15:04.465Z,1002.32
2017-02-05T03:16:05.129Z,1002.36
2017-02-05T03:17:05.808Z,1002.35
2017-02-05T03:18:06.495Z,1002.39
2017-02-05T03:19:07.173Z,1002.36
2017-02-05T03:20:07.867Z,1002.36
2017-02-05T03:21:08.540Z,1002.29
2017-02-05T03:22:09.217Z,1002.34
2017-02-05T03:23:09.886Z,1002.28
2017-02-05T03:24:10.566Z,1002.3
2017-02-05T03:25:11.239Z,1002.2
2017-02-05T03:26:11.920Z,1002.22
2017-02-05T03:27:12.589Z,1002.2
2017-02-05T03:28:13.264Z,1002.22
2017-02-05T03:29:13.957Z,1002.19
2017-02-05T03:30:14.638Z,1002.17
2017-02-05T03:31:15.326Z,1002.18
2017-02-05T03:32:16.005Z,1002.21
2017-02-05T03:33:16.674Z,1002.21
2017-02-05T03:34:17.374Z,1002.18
2017-02-05T03:35:18.042Z,1002.21
2017-02-05T03:36:18.723Z,1002.19
2017-02-05T03:37:19.411Z,1002.22
2017-02-05T03:38:20.087Z,1002.21
2017-02-05T03:39:20.757Z,1002.17
2017-02-05T03:40:21.438Z,1002.23
2017-02-05T03:41:22.114Z,1002.24
2017-02-05T03:42:22.818Z,1002.26
2017-02-05T03:43:23.508Z,1002.27
2017-02-05T03:44:24.172Z,1002.27
2017-02-05T03:45:24.833Z,1002.25
2017-02-05T03:46:25.515Z,1002.24
2017-02-05T03:47:26.183Z,1002.26
2017-02-05T03:48:26.858Z,1002.23
2017-02-05T03:49:27.535Z,1002.23
2017-02-05T03:50:28.205Z,1002.26
2017-02-05T03:51:28.898Z,1002.24
2017-02-05T03:52:29.572Z,1002.29
2017-02-05T03:53:30.281Z,1002.34
2017-02-05T03:54:30.972Z,1002.34
2017-02-05T03:55:31.664Z,1002.32
2017-02-05T03:56:32.342Z,1002.29
2017-02-05T03:57:33.031Z,1002.3
2017-02-05T03:58:33.744Z,1002.33
2017-02-05T03:59:34.412Z,1002.34
2017-02-05T04:00:35.091Z,1002.35
2017-02-05T04:01:35.776Z,1002.35
2017-02-05T04:02:36.456Z,1002.33
2017-02-05T04:03:37.124Z,1002.35
2017-02-05T04:04:37.801Z,1002.39
2017-02-05T04:05:38.475Z,1002.38
2017-02-05T04:06:39.142Z,1002.39
2017-02-05T04:07:39.841Z,1002.42
2017-02-05T04:08:40.538Z,1002.41
2017-02-05T04:09:41.204Z,1002.43
2017-02-05T04:10:41.870Z,1002.39
2017-02-05T04:11:42.535Z,1002.38
2017-02-05T04:12:43.197Z,1002.4
2017-02-05T04:13:43.892Z,1002.38
2017-02-05T04:14:44.554Z,1002.38
2017-02-05T04:15:45.249Z,1002.31
2017-02-05T04:16:45.929Z,1002.34
2017-02-05T04:17:46.599Z,1002.39
2017-02-05T04:18:47.276Z,1002.36
2017-02-05T04:19:47.962Z,1002.39
2017-02-05T04:20:48.640Z,1002.43
2017-02-05T04:21:49.307Z,1002.37
2017-02-05T04:22:49.984Z,1002.42
2017-02-05T04:23:50.676Z,1002.41
2017-02-05T04:24:51.362Z,1002.42
2017-02-05T04:25:52.040Z,1002.4
2017-02-05T04:26:52.729Z,1002.43
2017-02-05T04:27:53.423Z,1002.38
2017-02-05T04:28:54.100Z,1002.39
2017-02-05T04:29:54.793Z,1002.43
2017-02-05T04:30:55.467Z,1002.48
2017-02-05T04:31:56.153Z,1002.42
2017-02-05T04:32:56.882Z,1002.44
2017-02-05T04:33:57.546Z,1002.46
2017-02-05T04:34:58.246Z,1002.47
2017-02-05T04:35:58.916Z,1002.49
2017-02-05T04:36:59.594Z,1002.51
2017-02-05T04:38:00.281Z,1002.49
2017-02-05T04:39:00.962Z,1002.52
2017-02-05T04:40:01.632Z,1002.48
2017-02-05T04:41:02.318Z,1002.51
2017-02-05T04:42:02.977Z,1002.53
2017-02-05T04:43:03.639Z,1002.58
2017-02-05T04:44:04.322Z,1002.58
2017-02-05T04:45:04.999Z,1002.58
2017-02-05T04:46:05.704Z,1002.6
2017-02-05T04:47:06.444Z,1002.61
2017-02-05T04:48:07.115Z,1002.6
2017-02-05T04:49:07.776Z,1002.59
2017-02-05T04:50:08.445Z,1002.61
2017-02-05T04:51:09.120Z,1002.6
2017-02-05T04:52:09.802Z,1002.57
2017-02-05T04:53:10.479Z,1002.6
2017-02-05T04:54:11.144Z,1002.58
2017-02-05T04:55:11.860Z,1002.57
2017-02-05T04:56:12.580Z,1002.6
2017-02-05T04:57:13.289Z,1002.66
2017-02-05T04:58:13.977Z,1002.59
2017-02-05T04:59:14.653Z,1002.6
2017-02-05T05:00:15.337Z,1002.65
2017-02-05T05:01:16.036Z,1002.57
2017-02-05T05:02:16.728Z,1002.56
2017-02-05T05:03:17.400Z,1002.56
2017-02-05T05:04:18.077Z,1002.57
2017-02-05T05:05:18.748Z,1002.57
2017-02-05T05:06:19.428Z,1002.56
2017-02-05T05:07:20.090Z,1002.58
2017-02-05T05:08:20.775Z,1002.55
2017-02-05T05:09:21.436Z,1002.58
2017-02-05T05:10:22.103Z,1002.59
2017-02-05T05:11:22.771Z,1002.59
2017-02-05T05:12:23.498Z,1002.58
2017-02-05T05:13:24.193Z,1002.6
2017-02-05T05:14:24.881Z,1002.6
2017-02-05T05:15:25.574Z,1002.57
2017-02-05T05:16:26.244Z,1002.57
2017-02-05T05:17:26.926Z,1002.54
2017-02-05T05:18:27.636Z,1002.56
2017-02-05T05:19:28.316Z,1002.53
2017-02-05T05:20:29.003Z,1002.51
2017-02-05T05:21:29.672Z,1002.53
2017-02-05T05:22:30.344Z,1002.56
2017-02-05T05:23:31.022Z,1002.58
2017-02-05T05:24:31.687Z,1002.57
2017-02-05T05:25:32.378Z,1002.56
2017-02-05T05:26:33.053Z,1002.56
2017-02-05T05:27:33.777Z,1002.62
2017-02-05T05:28:34.462Z,1002.58
2017-02-05T05:29:35.132Z,1002.66
2017-02-05T05:30:35.807Z,1002.61
2017-02-05T05:31:36.507Z,1002.63
2017-02-05T05:32:37.175Z,1002.68
2017-02-05T05:33:37.842Z,1002.68
2017-02-05T05:34:38.530Z,1002.68
2017-02-05T05:35:39.209Z,1002.66
2017-02-05T05:36:39.866Z,1002.66
2017-02-05T05:37:40.552Z,1002.67
2017-02-05T05:38:41.232Z,1002.69
2017-02-05T05:39:41.897Z,1002.7
2017-02-05T05:40:42.564Z,1002.74
2017-02-05T05:41:43.332Z,1002.73
2017-02-05T05:42:44.061Z,1002.77
2017-02-05T05:43:44.773Z,1002.8
2017-02-05T05:44:45.472Z,1002.76
2017-02-05T05:45:46.163Z,1002.77
2017-02-05T05:46:46.831Z,1002.84
2017-02-05T05:47:47.502Z,1002.85
2017-02-05T05:48:48.186Z,1002.87
2017-02-05T05:49:48.855Z,1002.88
2017-02-05T05:50:49.532Z,1002.85
2017-02-05T05:51:50.243Z,1002.87
2017-02-05T05:52:50.915Z,1002.84
2017-02-05T05:53:51.591Z,1002.89
2017-02-05T05:54:52.279Z,1002.86
2017-02-05T05:55:52.969Z,1002.85
2017-02-05T05:56:53.656Z,1002.84
2017-02-05T05:57:54.325Z,1002.92
2017-02-05T05:58:55.010Z,1002.9
2017-02-05T05:59:55.679Z,1002.96
2017-02-05T06:00:56.364Z,1002.94
2017-02-05T06:01:57.035Z,1003.01
2017-02-05T06:02:57.698Z,1002.94
2017-02-05T06:03:58.374Z,1002.97
2017-02-05T06:04:59.044Z,1002.98
2017-02-05T06:05:59.722Z,1002.94
2017-02-05T06:07:00.393Z,1003.03
2017-02-05T06:08:01.064Z,1002.96
2017-02-05T06:09:01.735Z,1003.04
2017-02-05T06:10:02.410Z,1003.01
2017-02-05T06:11:03.085Z,1002.98
2017-02-05T06:12:03.758Z,1003.03
2017-02-05T06:13:04.442Z,1002.98
2017-02-05T06:14:05.152Z,1002.98
2017-02-05T06:15:05.825Z,1003.01
2017-02-05T06:16:06.492Z,1002.99
2017-02-05T06:17:07.157Z,1002.96
2017-02-05T06:18:07.838Z,1002.95
2017-02-05T06:19:08.527Z,1002.94
2017-02-05T06:20:09.218Z,1002.95
2017-02-05T06:21:09.895Z,1002.96
2017-02-05T06:22:10.599Z,1002.99
2017-02-05T06:23:11.287Z,1002.98
2017-02-05T06:24:11.965Z,1002.97
2017-02-05T06:25:12.643Z,1002.93
2017-02-05T06:26:13.324Z,1002.93
2017-02-05T06:27:13.999Z,1002.95
2017-02-05T06:28:14.679Z,1002.99
2017-02-05T06:29:15.358Z,1002.93
2017-02-05T06:30:16.035Z,1002.91
2017-02-05T06:31:16.705Z,1002.91
2017-02-05T06:32:17.396Z,1002.89
2017-02-05T06:33:18.067Z,1002.87
2017-02-05T06:34:18.805Z,1002.88
2017-02-05T06:35:19.491Z,1002.91
2017-02-05T06:36:20.177Z,1002.98
2017-02-05T06:37:20.865Z,1002.95
2017-02-05T06:38:21.562Z,1002.95
2017-02-05T06:39:22.224Z,1002.94
2017-02-05T06:40:22.913Z,1003
2017-02-05T06:41:23.586Z,1003.07
2017-02-05T06:42:24.262Z,1003.03
2017-02-05T06:43:24.931Z,1003.11
2017-02-05T06:44:25.602Z,1003.13
2017-02-05T06:45:26.276Z,1003.15
2017-02-05T06:46:26.943Z,1003.2
2017-02-05T06:47:27.612Z,1003.19
2017-02-05T06:48:28.282Z,1003.16
2017-02-05T06:49:28.971Z,1003.22
2017-02-05T06:50:29.649Z,1003.28
2017-02-05T06:51:30.326Z,1003.27
2017-02-05T06:52:31.010Z,1003.28
2017-02-05T06:53:31.679Z,1003.29
2017-02-05T06:54:32.382Z,1003.32
2017-02-05T06:55:33.053Z,1003.29
2017-02-05T06:56:33.735Z,1003.35
2017-02-05T06:57:34.465Z,1003.35
2017-02-05T06:58:35.145Z,1003.35
2017-02-05T06:59:35.823Z,1003.36
2017-02-05T07:00:36.489Z,1003.37
2017-02-05T07:01:37.171Z,1003.32
2017-02-05T07:02:37.843Z,1003.34
2017-02-05T07:03:38.538Z,1003.43
2017-02-05T07:04:39.209Z,1003.34
2017-02-05T07:05:39.898Z,1003.36
2017-02-05T07:06:40.567Z,1003.38
2017-02-05T07:07:41.234Z,1003.4
2017-02-05T07:08:41.925Z,1003.37
2017-02-05T07:09:42.601Z,1003.36
2017-02-05T07:10:43.274Z,1003.34
2017-02-05T07:11:43.958Z,1003.37
2017-02-05T07:12:44.644Z,1003.33
2017-02-05T07:13:45.329Z,1003.38
2017-02-05T07:14:46.021Z,1003.41
2017-02-05T07:15:46.698Z,1003.4
2017-02-05T07:16:47.393Z,1003.4
2017-02-05T07:17:48.056Z,1003.44
2017-02-05T07:18:48.739Z,1003.47
2017-02-05T07:19:49.428Z,1003.44
2017-02-05T07:20:50.096Z,1003.47
2017-02-05T07:21:50.783Z,1003.46
2017-02-05T07:22:51.451Z,1003.46
2017-02-05T07:23:52.127Z,1003.48
2017-02-05T07:24:52.813Z,1003.48
2017-02-05T07:25:53.483Z,1003.44
2017-02-05T07:26:54.159Z,1003.44
2017-02-05T07:27:54.839Z,1003.44
2017-02-05T07:28:55.510Z,1003.41
2017-02-05T07:29:56.184Z,1003.41
2017-02-05T07:30:56.858Z,1003.39
2017-02-05T07:31:57.542Z,1003.41
2017-02-05T07:32:58.222Z,1003.4
2017-02-05T07:33:58.894Z,1003.38
2017-02-05T07:34:59.568Z,1003.42
2017-02-05T07:36:00.246Z,1003.45
2017-02-05T07:37:00.932Z,1003.47
2017-02-05T07:38:01.606Z,1003.42
2017-02-05T07:39:02.333Z,1003.42
2017-02-05T07:40:02.992Z,1003.46
2017-02-05T07:41:03.714Z,1003.41
2017-02-05T07:42:04.398Z,1003.46
2017-02-05T07:43:05.082Z,1003.48
2017-02-05T07:44:05.757Z,1003.48
2017-02-05T07:45:06.437Z,1003.47
2017-02-05T07:46:07.118Z,1003.51
2017-02-05T07:47:07.825Z,1003.47
2017-02-05T07:48:08.521Z,1003.48
2017-02-05T07:49:09.194Z,1003.47
2017-02-05T07:50:09.879Z,1003.5
2017-02-05T07:51:10.535Z,1003.49
2017-02-05T07:52:11.213Z,1003.49
2017-02-05T07:53:11.896Z,1003.48
2017-02-05T07:54:12.587Z,1003.54
2017-02-05T07:55:13.262Z,1003.53
2017-02-05T07:56:13.966Z,1003.51
2017-02-05T07:57:14.627Z,1003.52
2017-02-05T07:58:15.304Z,1003.48
2017-02-05T07:59:16.004Z,1003.48
2017-02-05T08:00:16.692Z,1003.47
2017-02-05T08:01:17.358Z,1003.5
2017-02-05T08:02:18.044Z,1003.48
2017-02-05T08:03:18.717Z,1003.48
2017-02-05T08:04:19.443Z,1003.47
2017-02-05T08:05:20.129Z,1003.48
2017-02-05T08:06:20.814Z,1003.5
2017-02-05T08:07:21.481Z,1003.5
2017-02-05T08:08:22.160Z,1003.51
2017-02-05T08:09:22.838Z,1003.53
2017-02-05T08:10:23.519Z,1003.57
2017-02-05T08:11:24.208Z,1003.59
2017-02-05T08:12:24.889Z,1003.6
2017-02-05T08:13:25.579Z,1003.59
2017-02-05T08:14:26.271Z,1003.58
2017-02-05T08:15:26.962Z,1003.6
2017-02-05T08:16:27.643Z,1003.56
2017-02-05T08:17:28.300Z,1003.59
2017-02-05T08:18:28.975Z,1003.52
2017-02-05T08:19:29.655Z,1003.58
2017-02-05T08:20:30.315Z,1003.54
2017-02-05T08:21:30.997Z,1003.52
2017-02-05T08:22:31.669Z,1003.58
2017-02-05T08:23:32.365Z,1003.59
2017-02-05T08:24:33.043Z,1003.6
2017-02-05T08:25:33.713Z,1003.56
2017-02-05T08:26:34.401Z,1003.58
2017-02-05T08:27:35.084Z,1003.58
2017-02-05T08:28:35.765Z,1003.57
2017-02-05T08:29:36.462Z,1003.6
2017-02-05T08:30:37.161Z,1003.62
2017-02-05T08:31:37.818Z,1003.64
2017-02-05T08:32:38.517Z,1003.64
2017-02-05T08:33:39.177Z,1003.6
2017-02-05T08:34:39.854Z,1003.63
2017-02-05T08:35:40.540Z,1003.63
2017-02-05T08:36:41.219Z,1003.6
2017-02-05T08:37:41.903Z,1003.6
2017-02-05T08:38:42.612Z,1003.59
2017-02-05T08:39:43.285Z,1003.59
2017-02-05T08:40:44.008Z,1003.64
2017-02-05T08:41:44.709Z,1003.68
2017-02-05T08:42:45.419Z,1003.69
2017-02-05T08:43:46.088Z,1003.64
2017-02-05T08:44:46.766Z,1003.64
2017-02-05T08:45:47.490Z,1003.68
2017-02-05T08:46:48.152Z,1003.7
2017-02-05T08:47:48.825Z,1003.69
2017-02-05T08:48:49.500Z,1003.7
2017-02-05T08:49:50.172Z,1003.73
2017-02-05T08:50:50.854Z,1003.77
2017-02-05T08:51:51.620Z,1003.74
2017-02-05T08:52:52.287Z,1003.75
2017-02-05T08:53:52.955Z,1003.77
2017-02-05T08:54:53.653Z,1003.74
2017-02-05T08:55:54.312Z,1003.73
2017-02-05T08:56:54.981Z,1003.78
2017-02-05T08:57:55.662Z,1003.84
2017-02-05T08:58:56.343Z,1003.8
2017-02-05T08:59:57.021Z,1003.86
2017-02-05T09:00:57.703Z,1003.86
2017-02-05T09:01:58.399Z,1003.84
2017-02-05T09:02:59.084Z,1003.84
2017-02-05T09:03:59.769Z,1003.83
2017-02-05T09:05:00.440Z,1003.88
2017-02-05T09:06:01.121Z,1003.91
2017-02-05T09:07:01.807Z,1003.91
2017-02-05T09:08:02.487Z,1003.88
2017-02-05T09:09:03.158Z,1003.91
2017-02-05T09:10:03.836Z,1003.92
2017-02-05T09:11:04.515Z,1003.96
2017-02-05T09:12:05.187Z,1003.95
2017-02-05T09:13:05.897Z,1003.95
2017-02-05T09:14:06.571Z,1003.94
2017-02-05T09:15:07.260Z,1003.97
2017-02-05T09:16:07.944Z,1004.01
2017-02-05T09:17:08.618Z,1003.97
2017-02-05T09:18:09.307Z,1003.98
2017-02-05T09:19:09.985Z,1003.96
2017-02-05T09:20:10.658Z,1004
2017-02-05T09:21:11.409Z,1004
2017-02-05T09:22:12.116Z,1003.97
2017-02-05T09:23:12.786Z,1003.97
2017-02-05T09:24:13.456Z,1003.98
2017-02-05T09:25:14.151Z,1003.97
2017-02-05T09:26:14.853Z,1003.96
2017-02-05T09:27:15.530Z,1003.93
2017-02-05T09:28:16.207Z,1003.93
2017-02-05T09:29:16.884Z,1003.94
2017-02-05T09:30:18.401Z,1003.93
2017-02-05T09:31:19.125Z,1003.94
2017-02-05T09:32:19.773Z,1003.87
2017-02-05T09:33:20.455Z,1003.9
2017-02-05T09:34:21.154Z,1003.88
2017-02-05T09:35:21.941Z,1003.88
2017-02-05T09:36:22.563Z,1003.9
2017-02-05T09:37:23.277Z,1003.91
2017-02-05T09:38:23.974Z,1003.96
2017-02-05T09:39:24.676Z,1003.93
2017-02-05T09:40:25.381Z,1003.85
2017-02-05T09:41:26.130Z,1003.93
2017-02-05T09:42:26.832Z,1003.95
2017-02-05T09:43:27.636Z,1003.93
2017-02-05T09:44:28.461Z,1003.92
2017-02-05T09:45:29.590Z,1003.92
2017-02-05T09:46:30.559Z,1003.89
2017-02-05T09:47:31.249Z,1003.89
2017-02-05T09:48:31.909Z,1003.93
2017-02-05T09:49:32.592Z,1003.91
2017-02-05T09:50:33.320Z,1003.93
2017-02-05T09:51:34.230Z,1003.95
2017-02-05T09:52:35.007Z,1003.98
2017-02-05T09:53:35.871Z,1003.97
2017-02-05T09:54:36.592Z,1004.01
2017-02-05T09:55:37.385Z,1003.99
2017-02-05T09:56:38.243Z,1004.01
2017-02-05T09:57:39.366Z,1003.99
2017-02-05T09:58:40.693Z,1004.02
2017-02-05T09:59:42.228Z,1004.02
2017-02-05T10:00:43.426Z,1004.02
2017-02-05T10:01:44.335Z,1003.98
2017-02-05T10:02:46.772Z,1004.01
2017-02-05T10:03:47.738Z,1003.99
